createdAt,value
2022-10-28T00:01:25.788Z,18.60
2022-10-28T00:03:58.695Z,18.60
2022-10-28T00:06:35.429Z,18.50
2022-10-28T00:09:05.633Z,18.50
2022-10-28T00:11:35.576Z,18.60
2022-10-28T00:14:05.435Z,18.60
2022-10-28T00:16:35.486Z,18.50
2022-10-28T00:19:04.141Z,18.50
2022-10-28T00:21:34.364Z,18.60
2022-10-28T00:24:01.314Z,18.50
2022-10-28T00:26:33.837Z,18.50
2022-10-28T00:29:13.438Z,18.60
2022-10-28T00:31:41.024Z,18.50
2022-10-28T00:34:13.165Z,18.50
2022-10-28T00:36:43.917Z,18.50
2022-10-28T00:39:20.216Z,18.50
2022-10-28T00:41:57.006Z,18.40
2022-10-28T00:44:54.701Z,18.50
2022-10-28T00:47:52.516Z,18.50
2022-10-28T00:50:58.225Z,18.50
2022-10-28T00:53:29.792Z,18.40
2022-10-28T00:56:00.538Z,18.40
2022-10-28T00:58:27.971Z,18.40
2022-10-28T01:00:55.263Z,18.40
2022-10-28T01:03:22.579Z,18.40
2022-10-28T01:05:51.616Z,18.30
2022-10-28T01:08:18.755Z,18.40
2022-10-28T01:11:29.150Z,18.30
2022-10-28T01:14:10.932Z,18.30
2022-10-28T01:17:17.231Z,18.30
2022-10-28T01:20:25.672Z,18.30
2022-10-28T01:23:33.510Z,18.20
2022-10-28T01:26:16.854Z,18.20
2022-10-28T01:29:26.483Z,18.20
2022-10-28T01:31:54.996Z,18.20
2022-10-28T01:34:36.034Z,18.10
2022-10-28T01:37:34.818Z,18.10
2022-10-28T01:40:28.220Z,18.10
2022-10-28T01:43:13.105Z,18.10
2022-10-28T01:45:53.202Z,18.00
2022-10-28T01:48:42.934Z,18.00
2022-10-28T01:51:37.033Z,18.00
2022-10-28T01:54:07.857Z,18.00
2022-10-28T01:56:41.455Z,18.00
2022-10-28T01:59:13.717Z,17.90
2022-10-28T02:01:40.706Z,17.90
2022-10-28T02:04:07.913Z,17.90
2022-10-28T02:06:36.986Z,17.90
2022-10-28T02:09:30.347Z,17.90
2022-10-28T02:12:18.552Z,17.90
2022-10-28T02:14:58.422Z,17.80
2022-10-28T02:17:55.970Z,17.80
2022-10-28T02:21:05.860Z,17.80
2022-10-28T02:24:08.570Z,17.80
2022-10-28T02:26:42.854Z,17.80
2022-10-28T02:29:45.807Z,17.80
2022-10-28T02:32:20.810Z,17.70
2022-10-28T02:34:54.095Z,17.80
2022-10-28T02:37:33.748Z,17.80
2022-10-28T02:40:07.326Z,17.80
2022-10-28T02:42:51.398Z,17.70
2022-10-28T02:45:34.055Z,17.70
2022-10-28T02:48:16.464Z,17.70
2022-10-28T02:50:51.679Z,17.70
2022-10-28T02:53:31.364Z,17.70
2022-10-28T02:56:01.834Z,17.60
2022-10-28T02:58:29.147Z,17.60
2022-10-28T03:00:56.066Z,17.60
2022-10-28T03:03:23.000Z,17.50
2022-10-28T03:05:49.881Z,17.50
2022-10-28T03:08:16.803Z,17.50
2022-10-28T03:10:43.668Z,17.50
2022-10-28T03:13:10.547Z,17.50
2022-10-28T03:15:37.408Z,17.50
2022-10-28T03:18:04.365Z,17.50
2022-10-28T03:20:31.372Z,17.40
2022-10-28T03:22:58.252Z,17.50
2022-10-28T03:25:25.120Z,17.40
2022-10-28T03:27:51.999Z,17.40
2022-10-28T03:30:19.069Z,17.40
2022-10-28T03:32:46.076Z,17.40
2022-10-28T03:35:13.055Z,17.30
2022-10-28T03:37:43.750Z,17.30
2022-10-28T03:40:12.045Z,17.30
2022-10-28T03:42:41.877Z,17.30
2022-10-28T03:45:09.624Z,17.30
2022-10-28T03:47:36.777Z,17.30
2022-10-28T03:50:03.973Z,17.30
2022-10-28T03:52:30.872Z,17.30
2022-10-28T03:54:57.729Z,17.20
2022-10-28T03:57:24.831Z,17.20
2022-10-28T03:59:51.697Z,17.20
2022-10-28T04:02:18.680Z,17.20
2022-10-28T04:04:45.690Z,17.20
2022-10-28T04:07:12.559Z,17.20
2022-10-28T04:09:39.434Z,17.20
2022-10-28T04:12:07.190Z,17.30
2022-10-28T04:14:34.047Z,17.30
2022-10-28T04:17:00.944Z,17.30
2022-10-28T04:19:27.895Z,17.30
2022-10-28T04:21:54.771Z,17.30
2022-10-28T04:24:21.739Z,17.30
2022-10-28T04:26:48.624Z,17.30
2022-10-28T04:29:15.517Z,17.30
2022-10-28T04:31:42.428Z,17.40
2022-10-28T04:34:09.295Z,17.40
2022-10-28T04:36:36.214Z,17.40
2022-10-28T04:39:03.311Z,17.40
2022-10-28T04:41:30.203Z,17.40
2022-10-28T04:43:57.108Z,17.40
2022-10-28T04:46:24.012Z,17.40
2022-10-28T04:48:50.892Z,17.30
2022-10-28T04:51:17.762Z,17.40
2022-10-28T04:53:44.659Z,17.40
2022-10-28T04:56:11.534Z,17.40
2022-10-28T04:58:38.386Z,17.40
2022-10-28T05:01:09.208Z,17.40
2022-10-28T05:03:36.554Z,17.40
2022-10-28T05:06:03.808Z,17.50
2022-10-28T05:08:30.686Z,17.50
2022-10-28T05:10:58.193Z,17.50
2022-10-28T05:13:25.083Z,17.50
2022-10-28T05:15:52.044Z,17.50
2022-10-28T05:18:19.163Z,17.60
2022-10-28T05:20:46.028Z,17.60
2022-10-28T05:23:13.025Z,17.60
2022-10-28T05:25:40.306Z,17.60
2022-10-28T05:28:07.187Z,17.60
2022-10-28T05:30:34.053Z,17.60
2022-10-28T05:33:04.877Z,17.70
2022-10-28T05:35:32.034Z,17.70
2022-10-28T05:37:58.993Z,17.70
2022-10-28T05:40:25.891Z,17.70
2022-10-28T05:42:53.150Z,17.70
2022-10-28T05:45:20.302Z,17.70
2022-10-28T05:47:48.712Z,17.70
2022-10-28T05:50:18.980Z,17.70
2022-10-28T05:52:51.554Z,17.80
2022-10-28T05:55:20.128Z,17.80
2022-10-28T05:57:48.476Z,17.80
2022-10-28T06:00:17.324Z,17.80
2022-10-28T06:02:44.354Z,17.80
2022-10-28T06:05:11.942Z,17.80
2022-10-28T06:07:40.384Z,17.80
2022-10-28T06:10:09.416Z,17.80
2022-10-28T06:12:34.990Z,17.80
2022-10-28T06:15:02.826Z,17.80
2022-10-28T06:17:29.856Z,17.80
2022-10-28T06:19:56.753Z,17.80
2022-10-28T06:22:23.657Z,17.80
2022-10-28T06:24:50.524Z,17.80
2022-10-28T06:27:17.401Z,17.80
2022-10-28T06:29:44.383Z,17.80
2022-10-28T06:32:11.282Z,17.80
2022-10-28T06:34:38.156Z,17.80
2022-10-28T06:37:05.715Z,17.80
2022-10-28T06:39:32.901Z,17.90
2022-10-28T06:41:59.993Z,17.90
2022-10-28T06:44:26.862Z,17.80
2022-10-28T06:46:56.263Z,17.90
2022-10-28T06:49:23.134Z,17.90
2022-10-28T06:51:50.092Z,17.80
2022-10-28T06:54:17.836Z,17.80
2022-10-28T06:56:47.361Z,17.80
2022-10-28T06:59:14.215Z,17.80
2022-10-28T07:01:41.388Z,17.80
2022-10-28T07:04:12.727Z,17.80
2022-10-28T07:06:40.775Z,17.90
2022-10-28T07:09:07.830Z,17.90
2022-10-28T07:11:34.689Z,17.90
2022-10-28T07:14:01.641Z,17.80
2022-10-28T07:16:28.523Z,17.90
2022-10-28T07:18:55.368Z,18.00
2022-10-28T07:21:25.678Z,18.00
2022-10-28T07:23:52.548Z,18.00
2022-10-28T07:26:19.393Z,18.00
2022-10-28T07:28:46.286Z,18.10
2022-10-28T07:31:13.211Z,18.10
2022-10-28T07:33:40.062Z,18.10
2022-10-28T07:36:08.028Z,18.20
2022-10-28T07:38:34.944Z,18.20
2022-10-28T07:41:06.957Z,18.20
2022-10-28T07:43:40.265Z,18.30
2022-10-28T07:46:08.080Z,18.30
2022-10-28T07:48:36.577Z,18.40
2022-10-28T07:51:06.326Z,18.40
2022-10-28T07:53:33.921Z,18.50
2022-10-28T07:56:04.695Z,18.50
2022-10-28T07:58:31.559Z,18.50
2022-10-28T08:01:06.887Z,18.50
2022-10-28T08:03:38.748Z,18.60
2022-10-28T08:06:10.376Z,18.60
2022-10-28T08:08:38.178Z,18.60
2022-10-28T08:11:16.697Z,18.70
2022-10-28T08:13:43.561Z,18.70
2022-10-28T08:16:10.679Z,18.80
2022-10-28T08:18:38.889Z,18.80
2022-10-28T08:21:09.094Z,18.90
2022-10-28T08:23:38.305Z,19.00
2022-10-28T08:26:05.916Z,19.00
2022-10-28T08:28:32.831Z,19.10
2022-10-28T08:31:08.645Z,19.20
2022-10-28T08:33:42.613Z,19.20
2022-10-28T08:36:13.171Z,19.30
2022-10-28T08:38:45.193Z,19.40
2022-10-28T08:41:34.038Z,19.40
2022-10-28T08:44:28.285Z,19.50
2022-10-28T08:47:16.679Z,19.40
2022-10-28T08:49:49.227Z,19.50
2022-10-28T08:52:24.784Z,19.50
2022-10-28T08:55:22.241Z,19.50
2022-10-28T08:58:21.607Z,19.60
2022-10-28T09:00:54.263Z,19.60
2022-10-28T09:03:34.317Z,19.70
2022-10-28T09:06:06.973Z,19.80
2022-10-28T09:08:42.594Z,19.80
2022-10-28T09:11:46.946Z,19.90
2022-10-28T09:14:49.408Z,20.00
2022-10-28T09:17:54.795Z,20.10
2022-10-28T09:20:53.340Z,20.30
2022-10-28T09:23:38.039Z,20.40
2022-10-28T09:26:35.978Z,20.40
2022-10-28T09:29:32.820Z,20.50
2022-10-28T09:32:20.823Z,20.60
2022-10-28T09:34:55.782Z,20.70
2022-10-28T09:37:29.397Z,20.70
2022-10-28T09:40:04.689Z,20.70
2022-10-28T09:45:19.444Z,20.80
2022-10-28T09:48:01.690Z,20.80
2022-10-28T09:50:32.669Z,20.80
2022-10-28T09:53:33.710Z,20.90
2022-10-28T09:56:04.672Z,20.90
2022-10-28T09:58:35.823Z,21.00
2022-10-28T10:01:04.870Z,21.00
2022-10-28T10:03:33.005Z,21.10
2022-10-28T10:06:11.530Z,21.10
2022-10-28T10:08:40.689Z,21.20
2022-10-28T10:11:31.514Z,21.30
2022-10-28T10:14:00.280Z,21.40
2022-10-28T10:16:42.453Z,21.40
2022-10-28T10:19:11.187Z,21.50
2022-10-28T10:21:47.592Z,21.50
2022-10-28T10:24:32.216Z,21.60
2022-10-28T10:27:18.742Z,21.70
2022-10-28T10:29:52.077Z,21.80
2022-10-28T10:32:23.292Z,21.90
2022-10-28T10:35:12.821Z,22.00
2022-10-28T10:37:45.818Z,22.10
2022-10-28T10:40:48.667Z,22.20
2022-10-28T10:43:18.268Z,22.40
2022-10-28T10:45:59.442Z,22.50
2022-10-28T10:48:27.662Z,22.60
2022-10-28T10:50:55.890Z,22.70
2022-10-28T10:53:26.381Z,22.80
2022-10-28T10:55:58.257Z,22.90
2022-10-28T10:58:30.657Z,23.00
2022-10-28T11:01:01.288Z,23.00
2022-10-28T11:03:31.991Z,23.10
2022-10-28T11:08:47.967Z,23.20
2022-10-28T11:11:21.677Z,23.20
2022-10-28T11:14:03.304Z,23.30
2022-10-28T11:16:30.232Z,23.30
2022-10-28T11:18:57.119Z,23.30
2022-10-28T11:21:48.024Z,23.30
2022-10-28T11:24:30.473Z,23.30
2022-10-28T11:28:04.085Z,23.30
2022-10-28T11:31:17.722Z,23.30
2022-10-28T11:33:51.245Z,23.30
2022-10-28T11:37:09.288Z,23.30
2022-10-28T11:40:05.363Z,23.30
2022-10-28T11:43:30.638Z,23.30
2022-10-28T11:46:37.655Z,23.30
2022-10-28T11:49:33.592Z,23.40
2022-10-28T11:52:12.088Z,23.50
2022-10-28T11:55:12.721Z,23.60
2022-10-28T11:58:05.107Z,23.60
2022-10-28T12:00:50.406Z,23.70
2022-10-28T12:03:40.903Z,23.70
2022-10-28T12:06:42.247Z,23.70
2022-10-28T12:09:30.129Z,23.70
2022-10-28T12:12:23.409Z,23.80
2022-10-28T12:15:15.794Z,23.80
2022-10-28T12:18:13.105Z,23.90
2022-10-28T12:20:53.274Z,23.90
2022-10-28T12:23:22.397Z,24.00
2022-10-28T12:25:55.460Z,24.00
2022-10-28T12:28:32.748Z,24.00
2022-10-28T12:31:00.919Z,24.10
2022-10-28T12:33:37.306Z,24.10
2022-10-28T12:36:04.033Z,24.10
2022-10-28T12:38:44.393Z,24.20
2022-10-28T12:41:21.449Z,24.20
2022-10-28T12:44:14.900Z,24.20
2022-10-28T12:47:03.241Z,24.30
2022-10-28T12:49:57.018Z,24.30
2022-10-28T12:53:01.194Z,24.30
2022-10-28T12:55:48.649Z,24.30
2022-10-28T12:58:27.353Z,24.30
2022-10-28T13:01:01.028Z,24.30
2022-10-28T13:03:27.961Z,24.40
2022-10-28T13:06:30.478Z,24.40
2022-10-28T13:09:15.390Z,24.40
2022-10-28T13:12:39.431Z,24.50
2022-10-28T13:15:55.617Z,24.50
2022-10-28T13:18:57.410Z,24.60
2022-10-28T13:22:09.379Z,24.60
2022-10-28T13:25:27.689Z,24.60
2022-10-28T13:27:59.311Z,24.70
2022-10-28T13:30:27.417Z,24.70
2022-10-28T13:33:06.190Z,24.60
2022-10-28T13:35:33.466Z,24.60
2022-10-28T13:38:02.611Z,24.60
2022-10-28T13:40:32.164Z,24.70
2022-10-28T13:43:00.854Z,24.70
2022-10-28T13:45:54.557Z,24.70
2022-10-28T13:48:30.525Z,24.70
2022-10-28T13:51:09.281Z,24.70
2022-10-28T13:53:45.194Z,24.70
2022-10-28T13:56:27.388Z,24.70
2022-10-28T13:58:59.107Z,24.70
2022-10-28T14:02:07.553Z,24.60
2022-10-28T14:04:43.894Z,24.60
2022-10-28T14:07:10.664Z,24.60
2022-10-28T14:09:41.133Z,24.60
2022-10-28T14:12:26.762Z,24.50
2022-10-28T14:15:14.144Z,24.60
2022-10-28T14:17:46.538Z,24.50
2022-10-28T14:20:31.219Z,24.50
2022-10-28T14:22:59.081Z,24.50
2022-10-28T14:25:40.931Z,24.50
2022-10-28T14:28:32.328Z,24.50
2022-10-28T14:31:08.267Z,24.50
2022-10-28T14:33:50.124Z,24.50
2022-10-28T14:36:19.958Z,24.50
2022-10-28T14:39:32.980Z,24.40
2022-10-28T14:42:30.687Z,24.50
2022-10-28T14:45:27.301Z,24.40
2022-10-28T14:48:26.673Z,24.40
2022-10-28T14:50:54.629Z,24.40
2022-10-28T14:53:35.555Z,24.40
2022-10-28T14:56:12.542Z,24.30
2022-10-28T14:58:44.419Z,24.30
2022-10-28T15:01:17.383Z,24.20
2022-10-28T15:04:04.272Z,24.20
2022-10-28T15:06:33.159Z,24.20
2022-10-28T15:09:29.190Z,24.10
2022-10-28T15:11:59.828Z,24.10
2022-10-28T15:14:33.210Z,24.00
2022-10-28T15:17:19.654Z,24.00
2022-10-28T15:19:50.045Z,23.90
2022-10-28T15:22:21.330Z,23.80
2022-10-28T15:24:59.194Z,23.80
2022-10-28T15:27:33.221Z,23.70
2022-10-28T15:30:00.619Z,23.60
2022-10-28T15:32:34.459Z,23.60
2022-10-28T15:35:27.207Z,23.50
2022-10-28T15:37:55.801Z,23.40
2022-10-28T15:40:32.503Z,23.40
2022-10-28T15:43:07.193Z,23.30
2022-10-28T15:45:41.208Z,23.30
2022-10-28T15:48:15.244Z,23.10
2022-10-28T15:50:42.254Z,23.10
2022-10-28T15:53:12.711Z,23.00
2022-10-28T15:58:44.459Z,22.90
2022-10-28T16:01:35.626Z,22.90
2022-10-28T16:04:02.633Z,22.80
2022-10-28T16:06:33.787Z,22.70
2022-10-28T16:09:04.346Z,22.60
2022-10-28T16:11:35.669Z,22.60
2022-10-28T16:14:18.246Z,22.50
2022-10-28T16:16:45.208Z,22.50
2022-10-28T16:19:29.000Z,22.40
2022-10-28T16:21:56.147Z,22.40
2022-10-28T16:24:23.030Z,22.30
2022-10-28T16:26:49.921Z,22.30
2022-10-28T16:29:16.795Z,22.20
2022-10-28T16:31:46.496Z,22.20
2022-10-28T16:34:14.895Z,22.10
2022-10-28T16:36:41.769Z,22.10
2022-10-28T16:39:13.011Z,22.10
2022-10-28T16:41:40.930Z,22.00
2022-10-28T16:44:18.488Z,22.00
2022-10-28T16:46:45.405Z,22.00
2022-10-28T16:49:12.263Z,21.90
2022-10-28T16:51:39.856Z,21.80
2022-10-28T16:54:07.535Z,21.80
2022-10-28T16:56:34.466Z,21.80
2022-10-28T16:59:01.347Z,21.70
2022-10-28T17:01:28.328Z,21.70
2022-10-28T17:03:55.234Z,21.70
2022-10-28T17:06:22.140Z,21.60
2022-10-28T17:09:02.317Z,21.60
2022-10-28T17:14:02.107Z,21.50
2022-10-28T17:16:29.032Z,21.50
2022-10-28T17:18:55.945Z,21.50
2022-10-28T17:21:22.872Z,21.50
2022-10-28T17:23:49.734Z,21.50
2022-10-28T17:26:16.614Z,21.50
2022-10-28T17:28:43.526Z,21.40
2022-10-28T17:31:10.761Z,21.40
2022-10-28T17:33:37.658Z,21.40
2022-10-28T17:36:07.838Z,21.40
2022-10-28T17:38:34.742Z,21.40
2022-10-28T17:41:02.015Z,21.30
2022-10-28T17:43:28.902Z,21.40
2022-10-28T17:46:06.467Z,21.30
2022-10-28T17:48:34.247Z,21.30
2022-10-28T17:51:01.170Z,21.20
2022-10-28T17:53:28.076Z,21.20
2022-10-28T17:55:59.310Z,21.20
2022-10-28T17:58:26.843Z,21.20
2022-10-28T18:01:02.924Z,21.10
2022-10-28T18:03:33.984Z,21.10
2022-10-28T18:06:07.249Z,21.10
2022-10-28T18:08:40.474Z,21.00
2022-10-28T18:11:09.904Z,21.00
2022-10-28T18:13:39.619Z,21.00
2022-10-28T18:16:09.622Z,21.00
2022-10-28T18:18:41.089Z,21.00
2022-10-28T18:21:11.683Z,21.00
2022-10-28T18:23:40.798Z,21.00
2022-10-28T18:26:12.465Z,21.00
2022-10-28T18:28:41.590Z,21.00
2022-10-28T18:31:15.366Z,20.90
2022-10-28T18:33:43.530Z,20.90
2022-10-28T18:36:22.317Z,20.90
2022-10-28T18:38:50.300Z,20.90
2022-10-28T18:41:21.003Z,21.00
2022-10-28T18:43:48.148Z,21.00
2022-10-28T18:46:15.037Z,20.90
2022-10-28T18:48:41.908Z,20.90
2022-10-28T18:51:12.149Z,20.90
2022-10-28T18:53:44.951Z,20.90
2022-10-28T18:56:17.811Z,20.90
2022-10-28T18:58:45.222Z,20.90
2022-10-28T19:01:15.413Z,20.90
2022-10-28T19:03:43.305Z,20.90
2022-10-28T19:06:16.356Z,20.90
2022-10-28T19:08:44.267Z,20.90
2022-10-28T19:11:13.469Z,20.90
2022-10-28T19:13:42.017Z,20.90
2022-10-28T19:16:09.854Z,20.90
2022-10-28T19:18:38.268Z,20.80
2022-10-28T19:21:10.596Z,20.80
2022-10-28T19:23:37.950Z,20.80
2022-10-28T19:26:06.734Z,20.80
2022-10-28T19:28:39.368Z,20.80
2022-10-28T19:31:10.406Z,20.80
2022-10-28T19:33:40.835Z,20.80
2022-10-28T19:36:19.937Z,20.70
2022-10-28T19:38:49.060Z,20.70
2022-10-28T19:41:19.286Z,20.70
2022-10-28T19:43:46.514Z,20.70
2022-10-28T19:46:17.019Z,20.70
2022-10-28T19:48:48.101Z,20.70
2022-10-28T19:51:19.679Z,20.70
2022-10-28T19:53:55.931Z,20.70
2022-10-28T19:56:23.146Z,20.70
2022-10-28T19:58:58.990Z,20.70
2022-10-28T20:01:30.111Z,20.70
2022-10-28T20:03:57.511Z,20.70
2022-10-28T20:06:27.397Z,20.70
2022-10-28T20:08:54.261Z,20.70
2022-10-28T20:11:33.672Z,20.70
2022-10-28T20:14:12.555Z,20.70
2022-10-28T20:16:42.797Z,20.70
2022-10-28T20:19:10.828Z,20.60
2022-10-28T20:21:38.326Z,20.60
2022-10-28T20:24:06.960Z,20.60
2022-10-28T20:26:36.434Z,20.60
2022-10-28T20:29:03.394Z,20.60
2022-10-28T20:31:31.845Z,20.60
2022-10-28T20:34:03.452Z,20.60
2022-10-28T20:36:34.230Z,20.60
2022-10-28T20:39:16.448Z,20.60
2022-10-28T20:41:45.574Z,20.60
2022-10-28T20:44:12.514Z,20.60
2022-10-28T20:46:39.534Z,20.60
2022-10-28T20:49:08.626Z,20.60
2022-10-28T20:51:36.101Z,20.60
2022-10-28T20:54:03.084Z,20.60
2022-10-28T20:56:33.607Z,20.60
2022-10-28T20:59:00.879Z,20.60
2022-10-28T21:01:32.437Z,20.60
2022-10-28T21:04:03.666Z,20.60
2022-10-28T21:06:31.021Z,20.60
2022-10-28T21:08:58.660Z,20.60
2022-10-28T21:11:27.484Z,20.60
2022-10-28T21:13:57.843Z,20.60
2022-10-28T21:16:26.273Z,20.60
2022-10-28T21:18:53.398Z,20.60
2022-10-28T21:21:22.562Z,20.50
2022-10-28T21:23:49.590Z,20.60
2022-10-28T21:26:17.180Z,20.50
2022-10-28T21:28:45.002Z,20.60
2022-10-28T21:31:14.972Z,20.50
2022-10-28T21:33:43.042Z,20.60
2022-10-28T21:36:15.862Z,20.60
2022-10-28T21:38:42.802Z,20.60
2022-10-28T21:41:20.813Z,20.60
2022-10-28T21:43:50.290Z,20.60
2022-10-28T21:46:19.191Z,20.50
2022-10-28T21:48:46.395Z,20.50
2022-10-28T21:51:15.658Z,20.50
2022-10-28T21:53:44.650Z,20.50
2022-10-28T21:56:17.630Z,20.50
2022-10-28T21:58:46.084Z,20.60
2022-10-28T22:01:22.798Z,20.50
2022-10-28T22:03:51.489Z,20.50
2022-10-28T22:06:18.432Z,20.50
2022-10-28T22:08:45.306Z,20.50
2022-10-28T22:11:18.472Z,20.50
2022-10-28T22:13:45.766Z,20.50
2022-10-28T22:16:15.949Z,20.50
2022-10-28T22:18:43.149Z,20.50
2022-10-28T22:21:20.180Z,20.50
2022-10-28T22:23:47.386Z,20.40
2022-10-28T22:26:20.425Z,20.40
2022-10-28T22:28:48.026Z,20.40
2022-10-28T22:31:18.345Z,20.40
2022-10-28T22:36:22.982Z,20.40
2022-10-28T22:38:50.265Z,20.40
2022-10-28T22:41:18.277Z,20.30
2022-10-28T22:43:52.024Z,20.40
2022-10-28T22:46:19.736Z,20.40
2022-10-28T22:48:47.199Z,20.30
2022-10-28T22:51:14.787Z,20.30
2022-10-28T22:53:42.017Z,20.30
2022-10-28T22:56:15.656Z,20.30
2022-10-28T22:58:42.826Z,20.30
2022-10-28T23:01:16.486Z,20.30
2022-10-28T23:03:45.979Z,20.30
2022-10-28T23:06:15.868Z,20.30
2022-10-28T23:08:44.878Z,20.20
2022-10-28T23:11:12.902Z,20.20
2022-10-28T23:13:40.123Z,20.20
2022-10-28T23:16:13.177Z,20.20
2022-10-28T23:18:41.014Z,20.10
2022-10-28T23:21:14.586Z,20.10
2022-10-28T23:23:42.927Z,20.10
2022-10-28T23:26:11.683Z,20.10
2022-10-28T23:28:38.994Z,20.00
2022-10-28T23:31:06.799Z,20.00
2022-10-28T23:33:35.028Z,20.00
2022-10-28T23:36:06.674Z,19.90
2022-10-28T23:38:33.702Z,19.90
2022-10-28T23:41:06.292Z,20.00
2022-10-28T23:43:33.750Z,19.90
2022-10-28T23:46:01.542Z,19.90
2022-10-28T23:48:29.463Z,19.90
2022-10-28T23:50:57.168Z,19.90
2022-10-28T23:53:24.825Z,19.90
2022-10-28T23:55:52.243Z,19.90
2022-10-28T23:58:21.730Z,19.90
